Portada
METAR-TAF:

METAR-TAF

Aeropuertos :

Harrisburg-Raleigh Airport

Harrisburg, Illinois, Estados Unidos

latitud: 37-48-41N, longitud: 088-32-57W, altitud: 121 m

Observación

El informe se hizo hace 21 minutos, a las 07:35 UTC
Viento calma
Temperatura 22°C
Humedad 100%
Presión 1015 hPa
Visibilidad: 8.0 km
Cielo despejado
neblina

METAR: KHSB 060735Z AUTO 00000KT 5SM BR CLR 22/22 A2996 RMK AO2 T02210216

Hora: 02:56 (07:56 UTC)


TAF: falta

Observaciones y pronósticos meteorológicos de más de 4000 aeropuertos (mensajes METAR y TAF).

Los puntos amarillos y rojos representan las estaciones disponibles.

Ponga el ratón en el punto deseado para ver el nombre de la estación.

Haga clic para ver las observaciones y los pronósticos meteorológicos.

Para cambiar el mapa : haga clic en los botones verdes con una cruz de color negro para hacer un zoom, en el botón verde con un guión para alejar o en las flechas verdes para mapas adyacentes.


METAR-TAF: